DABB/AAE METAR and TAF weather

Enter ICAO airport designator
Station Type Date Time Source
DABB METAR 2020/09/28 07:00 UTC NOAA

DABB 280700Z 23008KT 9999 FEW020 16/14 Q1015


Station Type Date Time Source
DABB Decoded METAR 2020/09/28 07:00 UTC NOAA

Annaba, Algeria (DABB) 36-50N 007-49E 4M
Sep 28, 2020 - 03:00 AM EDT / 2020.09.28 0700 UTC
Wind: from the SW (230 degrees) at 9 MPH (8 KT):0
Visibility: greater than 7 mile(s):0
Sky conditions: mostly clear
Temperature: 60 F (16 C)
Dew Point: 57 F (14 C)
Relative Humidity: 87%
Pressure (altimeter): 29.97 in. Hg (1015 hPa)
ob: DABB 280700Z 23008KT 9999 FEW020 16/14 Q1015
cycle: 7

Station Type Date Time Source
DABB TAF 2020/09/28 06:40 UTC NOAA

TAF DABB 280500Z 2806/2906 24008KT 8000 SCT020 SCT026 PROB30
TEMPO 2806/2808 3000 BR BKN008

Example: see airport list